sensor_id;sensor_type;location;lat;lon;timestamp;pressure;altitude;pressure_sealevel;temperature;humidity
77207;BME280;66190;50.708;7.906;2024-01-25T00:01:58;97338.69;;;6.98;93.28
77207;BME280;66190;50.708;7.906;2024-01-25T00:04:23;97347.59;;;7.07;92.81
77207;BME280;66190;50.708;7.906;2024-01-25T00:06:49;97334.53;;;7.04;92.80
77207;BME280;66190;50.708;7.906;2024-01-25T00:09:14;97327.31;;;7.04;92.87
77207;BME280;66190;50.708;7.906;2024-01-25T00:11:40;97322.31;;;7.01;92.94
77207;BME280;66190;50.708;7.906;2024-01-25T00:14:05;97333.69;;;7.03;92.63
77207;BME280;66190;50.708;7.906;2024-01-25T00:16:30;97330.31;;;7.01;93.00
77207;BME280;66190;50.708;7.906;2024-01-25T00:18:56;97329.69;;;7.07;93.02
77207;BME280;66190;50.708;7.906;2024-01-25T00:21:21;97335.31;;;6.96;93.23
77207;BME280;66190;50.708;7.906;2024-01-25T00:23:46;97332.31;;;6.99;93.08
77207;BME280;66190;50.708;7.906;2024-01-25T00:26:12;97339.72;;;7.05;92.99
77207;BME280;66190;50.708;7.906;2024-01-25T00:28:38;97335.00;;;6.99;93.23
77207;BME280;66190;50.708;7.906;2024-01-25T00:31:03;97335.84;;;7.00;93.40
77207;BME280;66190;50.708;7.906;2024-01-25T00:33:29;97337.22;;;7.04;93.37
77207;BME280;66190;50.708;7.906;2024-01-25T00:35:54;97344.84;;;6.99;93.08
77207;BME280;66190;50.708;7.906;2024-01-25T00:38:20;97341.19;;;7.00;93.53
77207;BME280;66190;50.708;7.906;2024-01-25T00:40:46;97348.91;;;7.03;93.06
77207;BME280;66190;50.708;7.906;2024-01-25T00:43:12;97344.56;;;7.02;93.13
77207;BME280;66190;50.708;7.906;2024-01-25T00:45:37;97339.38;;;7.00;93.43
77207;BME280;66190;50.708;7.906;2024-01-25T00:48:03;97336.97;;;6.97;93.10
77207;BME280;66190;50.708;7.906;2024-01-25T00:50:29;97332.66;;;6.96;93.09
77207;BME280;66190;50.708;7.906;2024-01-25T00:52:54;97342.69;;;7.02;92.70
77207;BME280;66190;50.708;7.906;2024-01-25T00:55:20;97338.16;;;6.95;93.22
77207;BME280;66190;50.708;7.906;2024-01-25T00:57:46;97341.66;;;6.95;93.12
77207;BME280;66190;50.708;7.906;2024-01-25T01:00:12;97342.03;;;7.00;92.77
77207;BME280;66190;50.708;7.906;2024-01-25T01:02:45;97351.56;;;7.03;92.68
77207;BME280;66190;50.708;7.906;2024-01-25T01:05:11;97357.13;;;7.09;92.95
77207;BME280;66190;50.708;7.906;2024-01-25T01:07:38;97358.09;;;7.00;93.57
77207;BME280;66190;50.708;7.906;2024-01-25T01:10:06;97347.69;;;6.97;94.10
77207;BME280;66190;50.708;7.906;2024-01-25T01:12:32;97363.44;;;7.00;93.74
77207;BME280;66190;50.708;7.906;2024-01-25T01:14:57;97353.09;;;7.05;93.82
77207;BME280;66190;50.708;7.906;2024-01-25T01:17:23;97348.50;;;6.89;94.08
77207;BME280;66190;50.708;7.906;2024-01-25T01:19:48;97365.06;;;6.93;94.27
77207;BME280;66190;50.708;7.906;2024-01-25T01:22:14;97362.84;;;6.88;94.93
77207;BME280;66190;50.708;7.906;2024-01-25T01:24:39;97360.38;;;6.95;94.64
77207;BME280;66190;50.708;7.906;2024-01-25T01:27:04;97346.44;;;6.83;94.75
77207;BME280;66190;50.708;7.906;2024-01-25T01:29:30;97369.66;;;6.83;95.11
77207;BME280;66190;50.708;7.906;2024-01-25T01:31:55;97369.00;;;6.81;94.73
77207;BME280;66190;50.708;7.906;2024-01-25T01:34:21;97366.00;;;6.84;95.27
77207;BME280;66190;50.708;7.906;2024-01-25T01:36:46;97366.34;;;6.81;95.36
77207;BME280;66190;50.708;7.906;2024-01-25T01:39:11;97372.22;;;6.84;94.75
77207;BME280;66190;50.708;7.906;2024-01-25T01:41:37;97375.38;;;6.88;94.67
77207;BME280;66190;50.708;7.906;2024-01-25T01:44:02;97382.84;;;6.76;95.08
77207;BME280;66190;50.708;7.906;2024-01-25T01:46:37;97358.31;;;6.81;94.29
77207;BME280;66190;50.708;7.906;2024-01-25T01:49:06;97375.78;;;6.93;94.19
77207;BME280;66190;50.708;7.906;2024-01-25T01:51:33;97382.25;;;6.90;94.82
77207;BME280;66190;50.708;7.906;2024-01-25T01:54:00;97374.66;;;6.78;95.12
77207;BME280;66190;50.708;7.906;2024-01-25T01:56:27;97375.50;;;6.78;94.72
77207;BME280;66190;50.708;7.906;2024-01-25T01:58:55;97366.78;;;6.76;95.17
77207;BME280;66190;50.708;7.906;2024-01-25T02:01:24;97378.84;;;6.80;94.98
77207;BME280;66190;50.708;7.906;2024-01-25T02:03:49;97376.88;;;6.82;94.37
77207;BME280;66190;50.708;7.906;2024-01-25T02:06:15;97379.19;;;6.77;94.15
77207;BME280;66190;50.708;7.906;2024-01-25T02:08:40;97380.53;;;6.81;94.40
77207;BME280;66190;50.708;7.906;2024-01-25T02:11:06;97380.31;;;6.75;94.39
77207;BME280;66190;50.708;7.906;2024-01-25T02:13:33;97377.47;;;6.76;94.73
77207;BME280;66190;50.708;7.906;2024-01-25T02:15:58;97380.66;;;6.72;95.07
77207;BME280;66190;50.708;7.906;2024-01-25T02:18:24;97384.00;;;6.74;94.61
77207;BME280;66190;50.708;7.906;2024-01-25T02:20:49;97381.69;;;6.79;94.87
77207;BME280;66190;50.708;7.906;2024-01-25T02:23:15;97374.59;;;6.70;95.29
77207;BME280;66190;50.708;7.906;2024-01-25T02:25:40;97379.31;;;6.76;94.92
77207;BME280;66190;50.708;7.906;2024-01-25T02:28:05;97372.00;;;6.60;95.21
77207;BME280;66190;50.708;7.906;2024-01-25T02:30:31;97386.19;;;6.78;95.07
77207;BME280;66190;50.708;7.906;2024-01-25T02:32:56;97390.34;;;6.73;95.37
77207;BME280;66190;50.708;7.906;2024-01-25T02:35:22;97394.69;;;6.74;95.24
77207;BME280;66190;50.708;7.906;2024-01-25T02:37:47;97395.31;;;6.68;95.40
77207;BME280;66190;50.708;7.906;2024-01-25T02:40:13;97394.16;;;6.70;95.24
77207;BME280;66190;50.708;7.906;2024-01-25T02:42:39;97400.88;;;6.74;94.97
77207;BME280;66190;50.708;7.906;2024-01-25T02:45:04;97390.06;;;6.58;94.33
77207;BME280;66190;50.708;7.906;2024-01-25T02:47:30;97392.03;;;6.74;94.19
77207;BME280;66190;50.708;7.906;2024-01-25T02:49:55;97398.34;;;6.73;94.58
77207;BME280;66190;50.708;7.906;2024-01-25T02:52:20;97402.97;;;6.63;94.90
77207;BME280;66190;50.708;7.906;2024-01-25T02:54:46;97394.09;;;6.62;94.97
77207;BME280;66190;50.708;7.906;2024-01-25T02:57:11;97403.28;;;6.60;94.67
77207;BME280;66190;50.708;7.906;2024-01-25T02:59:37;97401.59;;;6.59;94.85
77207;BME280;66190;50.708;7.906;2024-01-25T03:02:02;97400.22;;;6.55;94.60
77207;BME280;66190;50.708;7.906;2024-01-25T03:04:27;97409.22;;;6.54;94.57
77207;BME280;66190;50.708;7.906;2024-01-25T03:06:53;97416.16;;;6.64;93.74
77207;BME280;66190;50.708;7.906;2024-01-25T03:09:18;97398.53;;;6.54;93.82
77207;BME280;66190;50.708;7.906;2024-01-25T03:11:46;97403.03;;;6.53;94.44
77207;BME280;66190;50.708;7.906;2024-01-25T03:14:11;97405.63;;;6.63;94.18
77207;BME280;66190;50.708;7.906;2024-01-25T03:16:37;97404.94;;;6.61;94.01
77207;BME280;66190;50.708;7.906;2024-01-25T03:19:03;97400.84;;;6.49;93.65
77207;BME280;66190;50.708;7.906;2024-01-25T03:21:28;97407.47;;;6.45;94.03
77207;BME280;66190;50.708;7.906;2024-01-25T03:23:54;97399.38;;;6.54;94.04
77207;BME280;66190;50.708;7.906;2024-01-25T03:26:19;97410.78;;;6.39;94.64
77207;BME280;66190;50.708;7.906;2024-01-25T03:28:45;97404.44;;;6.40;93.82
77207;BME280;66190;50.708;7.906;2024-01-25T03:31:10;97389.47;;;6.47;93.94
77207;BME280;66190;50.708;7.906;2024-01-25T03:33:35;97397.78;;;6.44;94.06
77207;BME280;66190;50.708;7.906;2024-01-25T03:36:04;97396.50;;;6.48;93.80
77207;BME280;66190;50.708;7.906;2024-01-25T03:38:30;97394.00;;;6.29;94.10
77207;BME280;66190;50.708;7.906;2024-01-25T03:40:55;97385.13;;;6.28;94.21
77207;BME280;66190;50.708;7.906;2024-01-25T03:43:27;97383.97;;;6.31;94.12
77207;BME280;66190;50.708;7.906;2024-01-25T03:45:53;97393.59;;;6.24;94.52
77207;BME280;66190;50.708;7.906;2024-01-25T03:48:18;97393.69;;;6.32;94.12
77207;BME280;66190;50.708;7.906;2024-01-25T03:50:44;97393.75;;;6.22;94.66
77207;BME280;66190;50.708;7.906;2024-01-25T03:53:09;97388.41;;;6.22;94.96
77207;BME280;66190;50.708;7.906;2024-01-25T03:55:34;97392.59;;;6.25;94.73
77207;BME280;66190;50.708;7.906;2024-01-25T03:58:00;97394.75;;;6.21;95.29
77207;BME280;66190;50.708;7.906;2024-01-25T04:00:25;97396.34;;;6.32;94.72
77207;BME280;66190;50.708;7.906;2024-01-25T04:02:51;97391.91;;;6.23;94.95
77207;BME280;66190;50.708;7.906;2024-01-25T04:05:17;97393.31;;;6.27;95.11
77207;BME280;66190;50.708;7.906;2024-01-25T04:07:42;97409.88;;;6.30;94.69
77207;BME280;66190;50.708;7.906;2024-01-25T04:10:08;97402.22;;;6.18;94.25
77207;BME280;66190;50.708;7.906;2024-01-25T04:12:33;97396.88;;;6.18;94.86
77207;BME280;66190;50.708;7.906;2024-01-25T04:14:59;97402.44;;;6.07;95.77
77207;BME280;66190;50.708;7.906;2024-01-25T04:17:24;97415.53;;;6.10;95.08
77207;BME280;66190;50.708;7.906;2024-01-25T04:19:50;97419.47;;;6.06;95.42
77207;BME280;66190;50.708;7.906;2024-01-25T04:22:16;97414.66;;;6.09;95.40
77207;BME280;66190;50.708;7.906;2024-01-25T04:24:41;97408.16;;;6.12;95.19
77207;BME280;66190;50.708;7.906;2024-01-25T04:27:08;97421.53;;;6.12;95.53
77207;BME280;66190;50.708;7.906;2024-01-25T04:29:33;97420.69;;;6.11;96.02
77207;BME280;66190;50.708;7.906;2024-01-25T04:31:59;97426.06;;;6.11;95.71
77207;BME280;66190;50.708;7.906;2024-01-25T04:34:24;97424.75;;;5.98;96.22
77207;BME280;66190;50.708;7.906;2024-01-25T04:36:50;97429.16;;;6.07;96.11
77207;BME280;66190;50.708;7.906;2024-01-25T04:39:15;97433.75;;;6.14;95.81
77207;BME280;66190;50.708;7.906;2024-01-25T04:41:40;97434.66;;;6.05;96.72
77207;BME280;66190;50.708;7.906;2024-01-25T04:44:06;97429.00;;;6.08;96.68
77207;BME280;66190;50.708;7.906;2024-01-25T04:46:31;97432.22;;;5.94;97.29
77207;BME280;66190;50.708;7.906;2024-01-25T04:49:02;97431.06;;;5.97;96.81
77207;BME280;66190;50.708;7.906;2024-01-25T04:51:27;97432.34;;;5.93;97.47
77207;BME280;66190;50.708;7.906;2024-01-25T04:53:53;97443.03;;;5.93;97.39
77207;BME280;66190;50.708;7.906;2024-01-25T04:56:18;97444.25;;;5.98;97.15
77207;BME280;66190;50.708;7.906;2024-01-25T04:58:44;97457.31;;;6.01;97.13
77207;BME280;66190;50.708;7.906;2024-01-25T05:01:09;97456.78;;;5.98;97.40
77207;BME280;66190;50.708;7.906;2024-01-25T05:03:34;97454.72;;;5.92;97.43
77207;BME280;66190;50.708;7.906;2024-01-25T05:06:00;97450.84;;;6.04;97.18
77207;BME280;66190;50.708;7.906;2024-01-25T05:08:26;97455.44;;;5.84;97.63
77207;BME280;66190;50.708;7.906;2024-01-25T05:10:52;97454.72;;;5.82;98.08
77207;BME280;66190;50.708;7.906;2024-01-25T05:13:18;97451.03;;;5.93;98.04
77207;BME280;66190;50.708;7.906;2024-01-25T05:15:44;97447.28;;;5.86;98.30
77207;BME280;66190;50.708;7.906;2024-01-25T05:18:09;97456.69;;;5.90;98.25
77207;BME280;66190;50.708;7.906;2024-01-25T05:20:34;97454.47;;;5.85;98.53
77207;BME280;66190;50.708;7.906;2024-01-25T05:23:03;97467.25;;;5.82;99.54
77207;BME280;66190;50.708;7.906;2024-01-25T05:25:29;97456.25;;;5.94;99.72
77207;BME280;66190;50.708;7.906;2024-01-25T05:27:55;97452.19;;;5.90;99.10
77207;BME280;66190;50.708;7.906;2024-01-25T05:30:22;97469.06;;;5.91;99.35
77207;BME280;66190;50.708;7.906;2024-01-25T05:32:47;97463.72;;;5.91;99.15
77207;BME280;66190;50.708;7.906;2024-01-25T05:35:15;97474.00;;;5.76;99.16
77207;BME280;66190;50.708;7.906;2024-01-25T05:37:40;97479.06;;;5.89;99.32
77207;BME280;66190;50.708;7.906;2024-01-25T05:40:06;97466.94;;;5.94;98.66
77207;BME280;66190;50.708;7.906;2024-01-25T05:42:32;97477.81;;;5.83;98.53
77207;BME280;66190;50.708;7.906;2024-01-25T05:44:58;97479.31;;;5.86;98.31
77207;BME280;66190;50.708;7.906;2024-01-25T05:47:23;97481.41;;;5.82;98.34
77207;BME280;66190;50.708;7.906;2024-01-25T05:49:49;97478.22;;;5.78;98.68
77207;BME280;66190;50.708;7.906;2024-01-25T05:52:14;97485.81;;;5.83;98.89
77207;BME280;66190;50.708;7.906;2024-01-25T05:54:40;97492.69;;;5.86;98.73
77207;BME280;66190;50.708;7.906;2024-01-25T05:57:05;97482.69;;;5.88;98.61
77207;BME280;66190;50.708;7.906;2024-01-25T05:59:31;97485.66;;;5.85;98.54
77207;BME280;66190;50.708;7.906;2024-01-25T06:01:56;97492.84;;;5.74;98.78
77207;BME280;66190;50.708;7.906;2024-01-25T06:04:21;97492.84;;;5.84;98.46
77207;BME280;66190;50.708;7.906;2024-01-25T06:06:47;97498.72;;;5.88;98.58
77207;BME280;66190;50.708;7.906;2024-01-25T06:09:12;97508.28;;;5.90;98.94
77207;BME280;66190;50.708;7.906;2024-01-25T06:11:39;97515.75;;;5.87;98.77
77207;BME280;66190;50.708;7.906;2024-01-25T06:14:05;97512.38;;;5.85;98.79
77207;BME280;66190;50.708;7.906;2024-01-25T06:16:31;97517.84;;;5.73;98.84
77207;BME280;66190;50.708;7.906;2024-01-25T06:18:56;97518.56;;;5.75;98.92
77207;BME280;66190;50.708;7.906;2024-01-25T06:21:21;97524.44;;;5.79;98.92
77207;BME280;66190;50.708;7.906;2024-01-25T06:23:47;97515.31;;;5.82;98.55
77207;BME280;66190;50.708;7.906;2024-01-25T06:26:12;97513.06;;;5.77;98.92
77207;BME280;66190;50.708;7.906;2024-01-25T06:28:38;97512.78;;;5.80;98.64
77207;BME280;66190;50.708;7.906;2024-01-25T06:31:03;97509.19;;;5.71;99.29
77207;BME280;66190;50.708;7.906;2024-01-25T06:33:29;97522.94;;;5.67;99.37
77207;BME280;66190;50.708;7.906;2024-01-25T06:35:55;97512.72;;;5.62;99.39
77207;BME280;66190;50.708;7.906;2024-01-25T06:38:20;97513.84;;;5.60;99.12
77207;BME280;66190;50.708;7.906;2024-01-25T06:40:46;97507.97;;;5.56;99.31
77207;BME280;66190;50.708;7.906;2024-01-25T06:43:11;97515.00;;;5.57;98.75
77207;BME280;66190;50.708;7.906;2024-01-25T06:45:37;97523.28;;;5.54;98.30
77207;BME280;66190;50.708;7.906;2024-01-25T06:48:06;97527.25;;;5.50;98.92
77207;BME280;66190;50.708;7.906;2024-01-25T06:50:31;97534.00;;;5.45;98.89
77207;BME280;66190;50.708;7.906;2024-01-25T06:52:56;97531.06;;;5.38;99.04
77207;BME280;66190;50.708;7.906;2024-01-25T06:55:22;97533.44;;;5.32;99.14
77207;BME280;66190;50.708;7.906;2024-01-25T06:57:47;97533.03;;;5.27;100.00
77207;BME280;66190;50.708;7.906;2024-01-25T07:00:13;97533.34;;;5.33;99.44
77207;BME280;66190;50.708;7.906;2024-01-25T07:02:41;97548.19;;;5.45;99.36
77207;BME280;66190;50.708;7.906;2024-01-25T07:05:07;97541.31;;;5.43;99.23
77207;BME280;66190;50.708;7.906;2024-01-25T07:07:33;97542.00;;;5.45;99.03
77207;BME280;66190;50.708;7.906;2024-01-25T07:09:58;97542.56;;;5.39;98.29
77207;BME280;66190;50.708;7.906;2024-01-25T07:12:24;97532.63;;;5.31;98.24
77207;BME280;66190;50.708;7.906;2024-01-25T07:14:49;97529.41;;;5.28;99.09
77207;BME280;66190;50.708;7.906;2024-01-25T07:17:15;97537.78;;;5.42;99.25
77207;BME280;66190;50.708;7.906;2024-01-25T07:19:40;97549.03;;;5.36;99.33
77207;BME280;66190;50.708;7.906;2024-01-25T07:22:06;97552.00;;;5.33;100.00
77207;BME280;66190;50.708;7.906;2024-01-25T07:24:31;97548.78;;;5.30;100.00
77207;BME280;66190;50.708;7.906;2024-01-25T07:26:56;97548.63;;;5.22;100.00
77207;BME280;66190;50.708;7.906;2024-01-25T07:29:22;97550.19;;;5.24;99.10
77207;BME280;66190;50.708;7.906;2024-01-25T07:31:48;97550.75;;;5.18;98.98
77207;BME280;66190;50.708;7.906;2024-01-25T07:34:13;97550.19;;;5.15;99.22
77207;BME280;66190;50.708;7.906;2024-01-25T07:36:39;97549.09;;;5.17;98.90
77207;BME280;66190;50.708;7.906;2024-01-25T07:39:04;97550.19;;;5.15;99.45
77207;BME280;66190;50.708;7.906;2024-01-25T07:41:30;97556.09;;;5.18;99.30
77207;BME280;66190;50.708;7.906;2024-01-25T07:43:56;97552.44;;;5.10;99.75
77207;BME280;66190;50.708;7.906;2024-01-25T07:46:21;97541.09;;;5.17;99.85
77207;BME280;66190;50.708;7.906;2024-01-25T07:48:49;97547.13;;;5.19;100.00
77207;BME280;66190;50.708;7.906;2024-01-25T07:51:14;97548.34;;;5.25;99.80
77207;BME280;66190;50.708;7.906;2024-01-25T07:53:40;97548.34;;;5.25;100.00
77207;BME280;66190;50.708;7.906;2024-01-25T07:56:08;97545.28;;;5.29;99.85
77207;BME280;66190;50.708;7.906;2024-01-25T07:58:36;97548.63;;;5.31;99.55
77207;BME280;66190;50.708;7.906;2024-01-25T08:01:05;97544.41;;;5.29;99.80
77207;BME280;66190;50.708;7.906;2024-01-25T08:03:34;97538.06;;;5.39;99.76
77207;BME280;66190;50.708;7.906;2024-01-25T08:06:01;97532.63;;;5.31;99.31
77207;BME280;66190;50.708;7.906;2024-01-25T08:08:28;97531.63;;;5.32;99.93
77207;BME280;66190;50.708;7.906;2024-01-25T08:10:53;97541.19;;;5.35;99.79
77207;BME280;66190;50.708;7.906;2024-01-25T08:13:19;97550.16;;;5.43;99.45
77207;BME280;66190;50.708;7.906;2024-01-25T08:15:45;97535.50;;;5.47;99.60
77207;BME280;66190;50.708;7.906;2024-01-25T08:18:10;97548.75;;;5.49;99.25
77207;BME280;66190;50.708;7.906;2024-01-25T08:20:37;97547.91;;;5.48;98.45
77207;BME280;66190;50.708;7.906;2024-01-25T08:23:02;97548.59;;;5.50;97.72
77207;BME280;66190;50.708;7.906;2024-01-25T08:25:28;97549.16;;;5.44;97.77
77207;BME280;66190;50.708;7.906;2024-01-25T08:27:53;97546.19;;;5.57;97.68
77207;BME280;66190;50.708;7.906;2024-01-25T08:30:19;97561.50;;;5.55;97.34
77207;BME280;66190;50.708;7.906;2024-01-25T08:32:44;97560.38;;;5.57;97.52
77207;BME280;66190;50.708;7.906;2024-01-25T08:35:09;97566.28;;;5.61;97.78
77207;BME280;66190;50.708;7.906;2024-01-25T08:37:35;97562.91;;;5.59;97.77
77207;BME280;66190;50.708;7.906;2024-01-25T08:40:03;97566.13;;;5.62;97.60
77207;BME280;66190;50.708;7.906;2024-01-25T08:42:31;97568.53;;;5.56;97.56
77207;BME280;66190;50.708;7.906;2024-01-25T08:44:56;97572.88;;;5.57;98.08
77207;BME280;66190;50.708;7.906;2024-01-25T08:47:22;97563.31;;;5.64;98.31
77207;BME280;66190;50.708;7.906;2024-01-25T08:49:47;97575.22;;;5.69;98.44
77207;BME280;66190;50.708;7.906;2024-01-25T08:52:13;97576.06;;;5.70;98.59
77207;BME280;66190;50.708;7.906;2024-01-25T08:54:38;97577.75;;;5.61;98.56
77207;BME280;66190;50.708;7.906;2024-01-25T08:57:04;97576.53;;;5.56;98.52
77207;BME280;66190;50.708;7.906;2024-01-25T08:59:30;97562.16;;;5.66;98.43
77207;BME280;66190;50.708;7.906;2024-01-25T09:01:58;97568.34;;;5.67;97.99
77207;BME280;66190;50.708;7.906;2024-01-25T09:04:23;97558.25;;;5.61;97.98
77207;BME280;66190;50.708;7.906;2024-01-25T09:06:49;97564.97;;;5.65;97.92
77207;BME280;66190;50.708;7.906;2024-01-25T09:09:14;97565.53;;;5.68;97.82
77207;BME280;66190;50.708;7.906;2024-01-25T09:11:39;97571.88;;;5.67;97.68
77207;BME280;66190;50.708;7.906;2024-01-25T09:14:05;97569.34;;;5.66;97.04
77207;BME280;66190;50.708;7.906;2024-01-25T09:16:30;97561.59;;;5.72;96.94
77207;BME280;66190;50.708;7.906;2024-01-25T09:18:56;97572.41;;;5.71;97.48
77207;BME280;66190;50.708;7.906;2024-01-25T09:21:21;97569.16;;;5.77;96.94
77207;BME280;66190;50.708;7.906;2024-01-25T09:23:46;97577.84;;;5.79;96.68
77207;BME280;66190;50.708;7.906;2024-01-25T09:26:12;97572.38;;;5.90;96.50
77207;BME280;66190;50.708;7.906;2024-01-25T09:28:37;97567.69;;;6.02;96.12
77207;BME280;66190;50.708;7.906;2024-01-25T09:31:03;97577.16;;;5.87;95.48
77207;BME280;66190;50.708;7.906;2024-01-25T09:33:29;97585.88;;;5.79;95.62
77207;BME280;66190;50.708;7.906;2024-01-25T09:35:55;97592.19;;;5.88;94.73
77207;BME280;66190;50.708;7.906;2024-01-25T09:38:21;97580.81;;;5.86;95.17
77207;BME280;66190;50.708;7.906;2024-01-25T09:40:47;97580.97;;;5.84;95.82
77207;BME280;66190;50.708;7.906;2024-01-25T09:43:14;97583.91;;;5.81;96.22
77207;BME280;66190;50.708;7.906;2024-01-25T09:45:40;97593.28;;;5.95;96.42
77207;BME280;66190;50.708;7.906;2024-01-25T09:48:07;97581.78;;;5.94;95.74
77207;BME280;66190;50.708;7.906;2024-01-25T09:50:32;97587.25;;;5.93;95.51
77207;BME280;66190;50.708;7.906;2024-01-25T09:52:59;97591.31;;;5.97;95.27
77207;BME280;66190;50.708;7.906;2024-01-25T09:55:26;97584.72;;;5.91;94.99
77207;BME280;66190;50.708;7.906;2024-01-25T09:57:55;97593.03;;;5.98;94.30
77207;BME280;66190;50.708;7.906;2024-01-25T10:00:22;97594.16;;;5.95;94.31
77207;BME280;66190;50.708;7.906;2024-01-25T10:02:48;97591.31;;;6.06;94.76
77207;BME280;66190;50.708;7.906;2024-01-25T10:05:15;97597.19;;;6.10;94.50
77207;BME280;66190;50.708;7.906;2024-01-25T10:07:42;97601.13;;;6.06;93.67
77207;BME280;66190;50.708;7.906;2024-01-25T10:10:09;97596.88;;;6.13;94.51
77207;BME280;66190;50.708;7.906;2024-01-25T10:12:37;97604.34;;;6.09;94.02
77207;BME280;66190;50.708;7.906;2024-01-25T10:15:03;97604.75;;;6.14;93.86
77207;BME280;66190;50.708;7.906;2024-01-25T10:17:29;97606.03;;;6.10;94.36
77207;BME280;66190;50.708;7.906;2024-01-25T10:19:55;97606.25;;;6.26;94.17
77207;BME280;66190;50.708;7.906;2024-01-25T10:22:20;97611.91;;;6.14;93.70
77207;BME280;66190;50.708;7.906;2024-01-25T10:24:46;97608.28;;;6.15;93.22
77207;BME280;66190;50.708;7.906;2024-01-25T10:27:11;97609.22;;;6.23;93.00
77207;BME280;66190;50.708;7.906;2024-01-25T10:29:41;97608.91;;;6.26;92.69
77207;BME280;66190;50.708;7.906;2024-01-25T10:32:08;97605.50;;;6.34;91.92
77207;BME280;66190;50.708;7.906;2024-01-25T10:34:35;97606.59;;;6.41;91.61
77207;BME280;66190;50.708;7.906;2024-01-25T10:37:02;97610.63;;;6.45;90.95
77207;BME280;66190;50.708;7.906;2024-01-25T10:39:29;97611.34;;;6.74;90.09
77207;BME280;66190;50.708;7.906;2024-01-25T10:41:56;97602.75;;;6.88;89.12
77207;BME280;66190;50.708;7.906;2024-01-25T10:44:21;97606.66;;;6.93;88.59
77207;BME280;66190;50.708;7.906;2024-01-25T10:46:47;97603.81;;;6.60;88.57
77207;BME280;66190;50.708;7.906;2024-01-25T10:49:14;97609.63;;;6.73;88.20
77207;BME280;66190;50.708;7.906;2024-01-25T10:51:43;97611.88;;;6.77;86.72
77207;BME280;66190;50.708;7.906;2024-01-25T10:54:09;97607.97;;;6.72;86.22
77207;BME280;66190;50.708;7.906;2024-01-25T10:56:36;97624.28;;;6.69;86.59
77207;BME280;66190;50.708;7.906;2024-01-25T10:59:02;97616.00;;;6.72;87.52
77207;BME280;66190;50.708;7.906;2024-01-25T11:01:29;97606.09;;;6.72;87.47
77207;BME280;66190;50.708;7.906;2024-01-25T11:03:54;97608.47;;;6.58;86.32
77207;BME280;66190;50.708;7.906;2024-01-25T11:06:21;97598.75;;;6.57;86.72
77207;BME280;66190;50.708;7.906;2024-01-25T11:08:47;97587.94;;;6.58;87.14
77207;BME280;66190;50.708;7.906;2024-01-25T11:11:14;97580.84;;;6.67;86.45
77207;BME280;66190;50.708;7.906;2024-01-25T11:13:43;97578.84;;;6.86;86.08
77207;BME280;66190;50.708;7.906;2024-01-25T11:18:51;97572.19;;;6.90;85.69
77207;BME280;66190;50.708;7.906;2024-01-25T11:21:28;97567.53;;;7.10;85.39
77207;BME280;66190;50.708;7.906;2024-01-25T11:24:01;97577.94;;;7.13;84.64
77207;BME280;66190;50.708;7.906;2024-01-25T11:26:27;97570.38;;;6.91;84.06
77207;BME280;66190;50.708;7.906;2024-01-25T11:28:52;97563.81;;;6.85;84.59
77207;BME280;66190;50.708;7.906;2024-01-25T11:31:18;97561.66;;;6.89;84.35
77207;BME280;66190;50.708;7.906;2024-01-25T11:33:44;97553.84;;;6.96;83.52
77207;BME280;66190;50.708;7.906;2024-01-25T11:36:10;97559.28;;;6.86;82.85
77207;BME280;66190;50.708;7.906;2024-01-25T11:38:38;97546.53;;;6.80;83.79
77207;BME280;66190;50.708;7.906;2024-01-25T11:41:04;97541.22;;;6.88;83.08
77207;BME280;66190;50.708;7.906;2024-01-25T11:43:29;97545.38;;;7.00;82.40
77207;BME280;66190;50.708;7.906;2024-01-25T11:45:54;97544.72;;;7.24;81.28
77207;BME280;66190;50.708;7.906;2024-01-25T11:48:20;97545.25;;;7.27;81.85
77207;BME280;66190;50.708;7.906;2024-01-25T11:50:46;97545.63;;;7.32;80.76
77207;BME280;66190;50.708;7.906;2024-01-25T11:53:11;97545.31;;;7.35;80.93
77207;BME280;66190;50.708;7.906;2024-01-25T11:55:36;97535.97;;;7.39;80.94
77207;BME280;66190;50.708;7.906;2024-01-25T11:58:02;97535.41;;;7.53;80.80
77207;BME280;66190;50.708;7.906;2024-01-25T12:00:28;97533.81;;;7.68;80.36
77207;BME280;66190;50.708;7.906;2024-01-25T12:02:54;97532.63;;;7.88;79.36
77207;BME280;66190;50.708;7.906;2024-01-25T12:05:19;97534.72;;;8.11;77.94
77207;BME280;66190;50.708;7.906;2024-01-25T12:07:45;97533.88;;;8.10;77.04
77207;BME280;66190;50.708;7.906;2024-01-25T12:10:15;97527.03;;;7.82;75.99
77207;BME280;66190;50.708;7.906;2024-01-25T12:12:41;97518.69;;;7.85;76.85
77207;BME280;66190;50.708;7.906;2024-01-25T12:15:07;97526.16;;;7.73;76.25
77207;BME280;66190;50.708;7.906;2024-01-25T12:17:34;97522.41;;;7.92;75.71
77207;BME280;66190;50.708;7.906;2024-01-25T12:20:02;97516.22;;;7.99;74.90
77207;BME280;66190;50.708;7.906;2024-01-25T12:22:29;97518.13;;;8.07;75.10
77207;BME280;66190;50.708;7.906;2024-01-25T12:24:55;97515.25;;;8.00;74.77
77207;BME280;66190;50.708;7.906;2024-01-25T12:27:21;97508.53;;;7.96;74.97
77207;BME280;66190;50.708;7.906;2024-01-25T12:29:48;97502.66;;;8.01;75.25
77207;BME280;66190;50.708;7.906;2024-01-25T12:32:13;97498.38;;;8.16;73.53
77207;BME280;66190;50.708;7.906;2024-01-25T12:34:39;97496.50;;;8.08;73.65
77207;BME280;66190;50.708;7.906;2024-01-25T12:37:06;97494.88;;;8.16;74.27
77207;BME280;66190;50.708;7.906;2024-01-25T12:39:33;97485.94;;;7.99;72.87
77207;BME280;66190;50.708;7.906;2024-01-25T12:41:59;97484.31;;;7.80;72.84
77207;BME280;66190;50.708;7.906;2024-01-25T12:44:25;97486.31;;;7.78;74.05
77207;BME280;66190;50.708;7.906;2024-01-25T12:46:51;97483.81;;;7.77;73.97
77207;BME280;66190;50.708;7.906;2024-01-25T12:49:17;97468.19;;;7.64;74.09
77207;BME280;66190;50.708;7.906;2024-01-25T12:51:43;97474.53;;;7.63;74.16
77207;BME280;66190;50.708;7.906;2024-01-25T12:54:08;97472.03;;;7.62;74.66
77207;BME280;66190;50.708;7.906;2024-01-25T12:56:34;97474.44;;;7.73;73.50
77207;BME280;66190;50.708;7.906;2024-01-25T12:58:59;97471.44;;;7.76;74.09
77207;BME280;66190;50.708;7.906;2024-01-25T13:01:25;97462.25;;;7.53;74.66
77207;BME280;66190;50.708;7.906;2024-01-25T13:03:51;97469.41;;;7.44;74.74
77207;BME280;66190;50.708;7.906;2024-01-25T13:06:16;97465.44;;;7.48;73.81